createdAt,value
2019-04-10T00:01:01.481Z,12.07
2019-04-10T00:03:33.672Z,12.53
2019-04-10T00:05:58.428Z,11.70
2019-04-10T00:08:26.209Z,11.78
2019-04-10T00:10:54.317Z,9.78
2019-04-10T00:13:22.536Z,10.43
2019-04-10T00:15:50.758Z,9.88
2019-04-10T00:18:18.092Z,10.98
2019-04-10T00:20:45.322Z,17.00
2019-04-10T00:23:13.146Z,16.65
2019-04-10T00:25:41.169Z,16.95
2019-04-10T00:28:09.456Z,16.97
2019-04-10T00:30:37.569Z,14.05
2019-04-10T00:33:04.808Z,12.95
2019-04-10T00:35:32.497Z,11.48
2019-04-10T00:37:59.762Z,10.88
2019-04-10T00:40:27.651Z,10.95
2019-04-10T00:42:57.074Z,12.03
2019-04-10T00:45:25.163Z,9.18
2019-04-10T00:47:53.167Z,11.18
2019-04-10T00:50:20.608Z,11.10
2019-04-10T00:52:48.256Z,10.53
2019-04-10T00:55:15.529Z,9.75
2019-04-10T00:57:43.736Z,9.83
2019-04-10T01:00:11.074Z,11.63
2019-04-10T01:02:38.290Z,11.10
2019-04-10T01:05:05.534Z,11.70
2019-04-10T01:07:39.462Z,12.20
2019-04-10T01:10:02.443Z,13.15
2019-04-10T01:12:30.100Z,12.63
2019-04-10T01:14:58.191Z,11.83
2019-04-10T01:17:26.463Z,11.68
2019-04-10T01:19:54.422Z,12.43
2019-04-10T01:22:21.801Z,11.25
2019-04-10T01:24:52.315Z,11.63
2019-04-10T01:27:20.050Z,11.73
2019-04-10T01:29:47.633Z,10.53
2019-04-10T01:32:15.422Z,10.85
2019-04-10T01:34:43.385Z,12.10
2019-04-10T01:37:10.720Z,12.88
2019-04-10T01:39:38.108Z,11.90
2019-04-10T01:42:06.178Z,10.23
2019-04-10T01:44:33.540Z,9.78
2019-04-10T01:47:00.752Z,9.25
2019-04-10T01:49:29.382Z,9.73
2019-04-10T01:51:57.396Z,8.83
2019-04-10T01:54:24.906Z,7.97
2019-04-10T01:56:52.202Z,7.95
2019-04-10T01:59:22.187Z,9.30
2019-04-10T02:01:51.233Z,10.15
2019-04-10T02:04:18.798Z,9.68
2019-04-10T02:06:46.082Z,10.43
2019-04-10T02:09:13.286Z,10.45
2019-04-10T02:11:40.501Z,10.88
2019-04-10T02:14:09.380Z,10.70
2019-04-10T02:16:36.608Z,10.88
2019-04-10T02:19:03.893Z,12.20
2019-04-10T02:21:31.813Z,11.15
2019-04-10T02:23:59.112Z,11.20
2019-04-10T02:26:27.663Z,12.10
2019-04-10T02:28:55.595Z,10.93
2019-04-10T02:31:26.384Z,11.05
2019-04-10T02:33:57.005Z,10.80
2019-04-10T02:36:26.838Z,11.18
2019-04-10T02:39:06.908Z,11.08
2019-04-10T02:41:22.175Z,11.60
2019-04-10T02:43:49.698Z,12.68
2019-04-10T02:46:16.923Z,12.88
2019-04-10T02:48:44.220Z,13.88
2019-04-10T02:51:11.601Z,13.78
2019-04-10T02:53:39.347Z,14.87
2019-04-10T02:56:07.240Z,13.53
2019-04-10T02:58:34.728Z,11.68
2019-04-10T03:01:03.126Z,12.00
2019-04-10T03:03:31.048Z,17.30
2019-04-10T03:05:58.766Z,15.98
2019-04-10T03:08:40.961Z,12.47
2019-04-10T03:11:00.434Z,11.00
2019-04-10T03:13:24.096Z,10.50
2019-04-10T03:15:51.840Z,12.10
2019-04-10T03:18:19.278Z,12.13
2019-04-10T03:20:46.803Z,11.08
2019-04-10T03:23:14.093Z,11.78
2019-04-10T03:25:41.470Z,11.83
2019-04-10T03:28:09.086Z,10.15
2019-04-10T03:30:38.361Z,11.20
2019-04-10T03:33:29.627Z,11.08
2019-04-10T03:35:55.454Z,12.10
2019-04-10T03:38:23.770Z,12.60
2019-04-10T03:40:51.461Z,14.63
2019-04-10T03:43:21.472Z,15.60
2019-04-10T03:45:48.856Z,15.85
2019-04-10T03:48:16.116Z,13.53
2019-04-10T03:50:43.693Z,12.73
2019-04-10T03:53:11.275Z,13.03
2019-04-10T03:55:38.538Z,11.15
2019-04-10T03:58:05.764Z,11.75
2019-04-10T04:00:34.293Z,12.03
2019-04-10T04:03:02.694Z,13.30
2019-04-10T04:05:30.779Z,12.55
2019-04-10T04:07:59.665Z,16.52
2019-04-10T04:10:28.790Z,18.20
2019-04-10T04:12:57.230Z,16.70
2019-04-10T04:15:26.118Z,17.32
2019-04-10T04:17:54.759Z,21.90
2019-04-10T04:20:23.178Z,16.20
2019-04-10T04:22:50.549Z,16.27
2019-04-10T04:25:17.807Z,14.80
2019-04-10T04:27:45.017Z,14.85
2019-04-10T04:30:12.611Z,14.25
2019-04-10T04:32:40.140Z,24.18
2019-04-10T04:35:07.398Z,17.00
2019-04-10T04:37:35.699Z,16.05
2019-04-10T04:40:04.299Z,15.28
2019-04-10T04:42:31.506Z,14.68
2019-04-10T04:44:58.723Z,14.15
2019-04-10T04:47:26.545Z,14.23
2019-04-10T04:49:54.426Z,16.50
2019-04-10T04:52:22.183Z,25.95
2019-04-10T04:54:50.890Z,30.92
2019-04-10T04:57:18.101Z,32.93
2019-04-10T04:59:45.334Z,33.05
2019-04-10T05:02:12.611Z,42.30
2019-04-10T05:04:41.765Z,45.55
2019-04-10T05:07:10.362Z,56.42
2019-04-10T05:09:39.273Z,64.70
2019-04-10T05:12:07.191Z,64.22
2019-04-10T05:14:34.431Z,61.65
2019-04-10T05:17:01.818Z,59.90
2019-04-10T05:19:29.733Z,43.55
2019-04-10T05:21:57.476Z,36.90
2019-04-10T05:24:24.837Z,35.05
2019-04-10T05:26:53.481Z,37.10
2019-04-10T05:29:21.668Z,46.10
2019-04-10T05:31:49.323Z,48.68
2019-04-10T05:34:16.527Z,42.98
2019-04-10T05:36:44.750Z,45.70
2019-04-10T05:39:12.641Z,42.35
2019-04-10T05:41:39.985Z,39.00
2019-04-10T05:44:07.452Z,36.77
2019-04-10T05:46:34.761Z,40.85
2019-04-10T05:49:01.969Z,44.05
2019-04-10T05:51:29.211Z,44.77
2019-04-10T05:53:56.484Z,43.05
2019-04-10T05:56:23.706Z,46.37
2019-04-10T05:58:51.115Z,48.30
2019-04-10T06:01:30.006Z,49.23
2019-04-10T06:03:47.707Z,49.85
2019-04-10T06:06:16.707Z,49.75
2019-04-10T06:08:44.018Z,47.05
2019-04-10T06:11:11.285Z,40.05
2019-04-10T06:13:38.855Z,39.78
2019-04-10T06:16:07.611Z,38.15
2019-04-10T06:18:35.475Z,37.45
2019-04-10T06:21:02.998Z,37.35
2019-04-10T06:23:30.331Z,36.40
2019-04-10T06:25:58.386Z,37.98
2019-04-10T06:28:27.217Z,44.67
2019-04-10T06:30:54.770Z,42.90
2019-04-10T06:33:22.268Z,49.10
2019-04-10T06:35:49.511Z,54.38
2019-04-10T06:38:16.916Z,41.95
2019-04-10T06:40:44.543Z,42.08
2019-04-10T06:43:12.783Z,46.53
2019-04-10T06:45:40.272Z,45.28
2019-04-10T06:48:07.477Z,36.08
2019-04-10T06:50:34.971Z,26.62
2019-04-10T06:53:02.379Z,23.55
2019-04-10T06:55:30.150Z,24.63
2019-04-10T06:57:58.960Z,39.75
2019-04-10T07:00:26.585Z,41.45
2019-04-10T07:02:54.649Z,36.10
2019-04-10T07:05:21.990Z,35.30
2019-04-10T07:07:53.597Z,30.77
2019-04-10T07:10:26.034Z,28.23
2019-04-10T07:12:47.843Z,26.57
2019-04-10T07:15:19.119Z,16.80
2019-04-10T07:17:44.998Z,16.50
2019-04-10T07:20:15.382Z,16.23
2019-04-10T07:22:46.505Z,16.20
2019-04-10T07:25:12.760Z,15.20
2019-04-10T07:27:41.773Z,15.88
2019-04-10T07:30:09.823Z,24.18
2019-04-10T07:32:41.202Z,33.13
2019-04-10T07:35:06.762Z,36.73
2019-04-10T07:37:34.133Z,33.05
2019-04-10T07:40:04.255Z,26.68
2019-04-10T07:42:35.169Z,18.20
2019-04-10T07:44:59.736Z,19.12
2019-04-10T07:47:27.260Z,21.80
2019-04-10T07:49:54.603Z,16.27
2019-04-10T07:52:22.932Z,13.70
2019-04-10T07:54:50.972Z,15.55
2019-04-10T07:57:18.271Z,16.82
2019-04-10T07:59:45.565Z,19.20
2019-04-10T08:02:12.771Z,13.20
2019-04-10T08:04:39.991Z,12.98
2019-04-10T08:07:07.349Z,15.30
2019-04-10T08:09:35.632Z,12.65
2019-04-10T08:12:03.029Z,10.65
2019-04-10T08:14:31.462Z,11.28
2019-04-10T08:16:59.558Z,8.68
2019-04-10T08:19:28.187Z,27.00
2019-04-10T08:21:56.880Z,11.00
2019-04-10T08:24:24.169Z,9.73
2019-04-10T08:26:52.646Z,8.53
2019-04-10T08:29:21.809Z,7.53
2019-04-10T08:31:50.344Z,7.95
2019-04-10T08:34:17.652Z,6.95
2019-04-10T08:36:45.790Z,9.40
2019-04-10T08:39:17.295Z,8.30
2019-04-10T08:41:42.071Z,9.50
2019-04-10T08:44:09.376Z,9.03
2019-04-10T08:46:37.712Z,7.28
2019-04-10T08:49:05.696Z,11.38
2019-04-10T08:51:33.231Z,9.75
2019-04-10T08:54:00.810Z,8.35
2019-04-10T08:56:28.120Z,8.48
2019-04-10T08:58:55.399Z,8.88
2019-04-10T09:01:23.014Z,10.80
2019-04-10T09:03:50.994Z,13.48
2019-04-10T09:06:19.342Z,11.45
2019-04-10T09:08:46.790Z,11.33
2019-04-10T09:11:14.701Z,15.08
2019-04-10T09:13:44.332Z,18.27
2019-04-10T09:16:12.140Z,12.73
2019-04-10T09:18:39.391Z,10.15
2019-04-10T09:21:07.044Z,12.60
2019-04-10T09:23:44.327Z,11.05
2019-04-10T09:26:03.817Z,14.35
2019-04-10T09:28:31.148Z,7.35
2019-04-10T09:30:59.433Z,7.15
2019-04-10T09:33:30.454Z,7.00
2019-04-10T09:35:57.369Z,4.47
2019-04-10T09:38:24.623Z,5.50
2019-04-10T09:40:51.851Z,20.02
2019-04-10T09:43:19.137Z,43.10
2019-04-10T09:45:46.364Z,8.10
2019-04-10T09:48:13.576Z,7.35
2019-04-10T09:50:41.757Z,7.10
2019-04-10T09:53:09.476Z,7.65
2019-04-10T09:55:37.066Z,7.72
2019-04-10T09:58:04.308Z,335.95
2019-04-10T10:00:31.935Z,103.40
2019-04-10T10:02:59.382Z,34.73
2019-04-10T10:05:26.666Z,24.37
2019-04-10T10:07:56.086Z,21.05
2019-04-10T10:10:22.994Z,7.72
2019-04-10T10:12:50.636Z,5.95
2019-04-10T10:15:18.976Z,5.92
2019-04-10T10:17:46.595Z,17.80
2019-04-10T10:20:14.133Z,12.68
2019-04-10T10:22:41.646Z,6.05
2019-04-10T10:25:08.986Z,4.97
2019-04-10T10:27:36.499Z,5.75
2019-04-10T10:30:05.137Z,9.55
2019-04-10T10:32:33.053Z,11.95
2019-04-10T10:35:01.029Z,11.05
2019-04-10T10:37:30.469Z,27.37
2019-04-10T10:39:57.366Z,7.37
2019-04-10T10:42:24.626Z,5.75
2019-04-10T10:44:51.844Z,9.83
2019-04-10T10:47:20.053Z,5.20
2019-04-10T10:49:48.632Z,5.40
2019-04-10T10:52:17.546Z,5.40
2019-04-10T10:54:45.204Z,34.65
2019-04-10T10:57:13.179Z,11.45
2019-04-10T10:59:41.884Z,5.20
2019-04-10T11:02:09.181Z,7.67
2019-04-10T11:04:37.850Z,4.78
2019-04-10T11:07:05.209Z,5.33
2019-04-10T11:09:33.613Z,7.58
2019-04-10T11:12:01.721Z,13.72
2019-04-10T11:14:31.493Z,10.05
2019-04-10T11:16:58.840Z,8.23
2019-04-10T11:19:27.031Z,5.90
2019-04-10T11:21:54.749Z,5.30
2019-04-10T11:24:22.818Z,5.75
2019-04-10T11:26:50.783Z,7.35
2019-04-10T11:29:19.411Z,7.10
2019-04-10T11:31:47.024Z,12.15
2019-04-10T11:34:14.348Z,84.62
2019-04-10T11:36:42.526Z,10.05
2019-04-10T11:39:21.690Z,6.87
2019-04-10T11:41:41.174Z,5.20
2019-04-10T11:44:09.901Z,9.53
2019-04-10T11:46:38.678Z,36.35
2019-04-10T11:49:10.244Z,13.30
2019-04-10T11:51:38.733Z,9.58
2019-04-10T11:54:10.969Z,14.83
2019-04-10T11:56:36.233Z,7.25
2019-04-10T11:59:05.795Z,5.83
2019-04-10T12:01:34.757Z,5.58
2019-04-10T12:04:06.716Z,5.28
2019-04-10T12:06:33.893Z,7.05
2019-04-10T12:11:33.122Z,6.08
2019-04-10T12:14:00.829Z,6.62
2019-04-10T12:16:29.425Z,5.47
2019-04-10T12:18:57.310Z,9.23
2019-04-10T12:21:24.565Z,5.10
2019-04-10T12:23:51.796Z,4.78
2019-04-10T12:26:19.966Z,5.65
2019-04-10T12:28:47.260Z,5.60
2019-04-10T12:31:15.519Z,7.08
2019-04-10T12:33:42.985Z,8.38
2019-04-10T12:36:12.168Z,4.90
2019-04-10T12:38:39.786Z,5.10
2019-04-10T12:41:07.060Z,5.25
2019-04-10T12:43:34.695Z,4.95
2019-04-10T12:46:02.386Z,5.40
2019-04-10T12:48:30.444Z,4.40
2019-04-10T12:50:57.686Z,13.28
2019-04-10T12:53:24.889Z,9.45
2019-04-10T12:55:52.155Z,4.92
2019-04-10T12:58:20.647Z,11.20
2019-04-10T13:00:48.404Z,13.08
2019-04-10T13:03:16.667Z,14.30
2019-04-10T13:05:45.138Z,13.40
2019-04-10T13:08:21.200Z,4.97
2019-04-10T13:10:42.091Z,6.40
2019-04-10T13:13:09.718Z,120.80
2019-04-10T13:15:37.220Z,147.62
2019-04-10T13:18:05.776Z,171.30
2019-04-10T13:20:33.695Z,88.22
2019-04-10T13:23:02.772Z,15.38
2019-04-10T13:25:30.206Z,11.50
2019-04-10T13:27:57.674Z,8.70
2019-04-10T13:30:25.066Z,7.30
2019-04-10T13:32:52.412Z,6.58
2019-04-10T13:35:19.616Z,15.23
2019-04-10T13:37:46.842Z,8.48
2019-04-10T13:40:15.035Z,9.85
2019-04-10T13:42:42.815Z,7.17
2019-04-10T13:45:10.844Z,6.90
2019-04-10T13:47:38.686Z,7.97
2019-04-10T13:50:06.363Z,6.95
2019-04-10T13:52:35.048Z,5.28
2019-04-10T13:55:03.634Z,7.33
2019-04-10T13:57:30.834Z,13.93
2019-04-10T13:59:58.044Z,11.75
2019-04-10T14:02:37.222Z,6.67
2019-04-10T14:05:09.542Z,6.12
2019-04-10T14:07:38.324Z,11.10
2019-04-10T14:10:07.112Z,27.13
2019-04-10T14:12:35.323Z,25.75
2019-04-10T14:15:02.772Z,33.20
2019-04-10T14:17:29.983Z,22.13
2019-04-10T14:19:59.764Z,40.00
2019-04-10T14:22:26.781Z,12.95
2019-04-10T14:24:54.008Z,22.62
2019-04-10T14:27:23.017Z,14.80
2019-04-10T14:29:51.063Z,16.85
2019-04-10T14:32:26.499Z,17.42
2019-04-10T14:34:54.587Z,7.42
2019-04-10T14:37:22.600Z,16.62
2019-04-10T14:39:50.143Z,16.48
2019-04-10T14:42:18.294Z,14.87
2019-04-10T14:44:46.402Z,11.08
2019-04-10T14:47:14.980Z,12.03
2019-04-10T14:49:43.081Z,8.33
2019-04-10T14:52:10.717Z,16.30
2019-04-10T14:54:38.050Z,10.43
2019-04-10T14:57:06.420Z,6.70
2019-04-10T14:59:33.832Z,7.22
2019-04-10T15:02:02.231Z,9.83
2019-04-10T15:04:29.609Z,7.60
2019-04-10T15:06:57.905Z,10.18
2019-04-10T15:09:26.234Z,19.77
2019-04-10T15:11:53.629Z,13.72
2019-04-10T15:14:21.633Z,12.40
2019-04-10T15:16:58.849Z,12.95
2019-04-10T15:19:18.476Z,13.58
2019-04-10T15:21:47.256Z,13.28
2019-04-10T15:24:15.306Z,10.85
2019-04-10T15:26:42.627Z,8.35
2019-04-10T15:29:10.031Z,16.35
2019-04-10T15:31:37.231Z,11.63
2019-04-10T15:34:05.731Z,12.65
2019-04-10T15:36:33.937Z,5.85
2019-04-10T15:39:02.229Z,7.15
2019-04-10T15:41:31.483Z,14.80
2019-04-10T15:43:59.411Z,14.95
2019-04-10T15:46:26.948Z,6.40
2019-04-10T15:48:55.025Z,12.93
2019-04-10T15:51:22.456Z,11.00
2019-04-10T15:53:50.057Z,12.05
2019-04-10T15:56:18.886Z,20.62
2019-04-10T15:58:46.312Z,15.40
2019-04-10T16:01:15.982Z,9.70
2019-04-10T16:03:43.272Z,11.57
2019-04-10T16:06:11.152Z,11.95
2019-04-10T16:08:38.625Z,13.93
2019-04-10T16:11:17.441Z,11.40
2019-04-10T16:13:46.497Z,18.75
2019-04-10T16:16:33.963Z,21.62
2019-04-10T16:19:04.185Z,12.03
2019-04-10T16:21:31.895Z,16.77
2019-04-10T16:24:14.466Z,9.90
2019-04-10T16:26:41.723Z,11.18
2019-04-10T16:29:09.623Z,14.87
2019-04-10T16:31:37.671Z,10.88
2019-04-10T16:34:05.155Z,22.75
2019-04-10T16:36:33.306Z,23.85
2019-04-10T16:39:00.882Z,29.05
2019-04-10T16:41:31.099Z,125.00
2019-04-10T16:43:58.501Z,149.90
2019-04-10T16:46:25.789Z,133.25
2019-04-10T16:48:53.011Z,96.20
2019-04-10T16:51:20.508Z,89.87
2019-04-10T16:53:48.232Z,29.77
2019-04-10T16:56:16.085Z,17.02
2019-04-10T16:58:44.476Z,13.53
2019-04-10T17:01:12.570Z,9.55
2019-04-10T17:03:40.166Z,13.53
2019-04-10T17:06:08.242Z,14.98
2019-04-10T17:08:37.342Z,23.15
2019-04-10T17:11:05.057Z,27.42
2019-04-10T17:13:32.792Z,28.02
2019-04-10T17:16:00.088Z,28.12
2019-04-10T17:18:27.485Z,31.37
2019-04-10T17:20:55.145Z,31.85
2019-04-10T17:23:22.645Z,32.17
2019-04-10T17:25:50.743Z,40.67
2019-04-10T17:28:18.515Z,37.90
2019-04-10T17:30:46.387Z,37.83
2019-04-10T17:33:13.718Z,51.83
2019-04-10T17:35:40.953Z,55.67
2019-04-10T17:38:09.806Z,67.10
2019-04-10T17:40:45.576Z,71.97
2019-04-10T17:43:06.583Z,136.15
2019-04-10T17:45:36.408Z,149.87
2019-04-10T17:48:03.673Z,137.22
2019-04-10T17:50:31.988Z,93.07
2019-04-10T17:52:59.383Z,41.48
2019-04-10T17:55:27.431Z,22.52
2019-04-10T17:57:56.650Z,19.37
2019-04-10T18:00:40.877Z,24.40
2019-04-10T18:03:08.084Z,31.48
2019-04-10T18:05:35.667Z,34.58
2019-04-10T18:08:02.993Z,35.83
2019-04-10T18:10:41.153Z,35.13
2019-04-10T18:12:59.231Z,56.65
2019-04-10T18:15:26.536Z,113.77
2019-04-10T18:17:53.767Z,64.82
2019-04-10T18:20:22.010Z,64.30
2019-04-10T18:22:49.403Z,75.40
2019-04-10T18:25:16.636Z,61.50
2019-04-10T18:27:44.885Z,43.05
2019-04-10T18:30:12.212Z,46.58
2019-04-10T18:32:40.110Z,41.65
2019-04-10T18:35:07.360Z,29.95
2019-04-10T18:37:35.338Z,22.27
2019-04-10T18:40:03.362Z,25.27
2019-04-10T18:42:32.861Z,27.02
2019-04-10T18:45:02.061Z,31.02
2019-04-10T18:47:32.035Z,34.50
2019-04-10T18:49:58.449Z,39.75
2019-04-10T18:52:25.751Z,34.90
2019-04-10T18:54:54.002Z,31.70
2019-04-10T18:57:22.033Z,30.95
2019-04-10T19:00:08.327Z,29.50
2019-04-10T19:02:52.895Z,25.80
2019-04-10T19:05:23.450Z,42.48
2019-04-10T19:07:51.675Z,44.60
2019-04-10T19:10:19.873Z,42.88
2019-04-10T19:12:48.726Z,37.38
2019-04-10T19:15:16.925Z,36.17
2019-04-10T19:17:44.337Z,34.50
2019-04-10T19:20:11.626Z,31.93
2019-04-10T19:22:40.044Z,39.15
2019-04-10T19:25:08.282Z,54.27
2019-04-10T19:27:36.073Z,40.95
2019-04-10T19:30:07.694Z,33.88
2019-04-10T19:32:37.341Z,22.02
2019-04-10T19:35:06.620Z,18.35
2019-04-10T19:37:34.261Z,18.50
2019-04-10T19:40:03.167Z,22.60
2019-04-10T19:42:30.471Z,22.13
2019-04-10T19:44:57.755Z,25.65
2019-04-10T19:47:26.253Z,44.25
2019-04-10T19:49:53.627Z,80.72
2019-04-10T19:52:20.861Z,85.07
2019-04-10T19:54:51.247Z,43.17
2019-04-10T19:57:19.339Z,27.75
2019-04-10T19:59:46.615Z,22.27
2019-04-10T20:02:14.901Z,27.30
2019-04-10T20:04:43.009Z,24.98
2019-04-10T20:07:11.150Z,21.97
2019-04-10T20:09:38.864Z,20.45
2019-04-10T20:12:06.548Z,17.95
2019-04-10T20:14:34.671Z,16.30
2019-04-10T20:17:02.063Z,14.70
2019-04-10T20:19:29.310Z,14.87
2019-04-10T20:21:56.532Z,13.95
2019-04-10T20:24:24.938Z,12.40
2019-04-10T20:26:52.246Z,14.23
2019-04-10T20:29:19.502Z,16.57
2019-04-10T20:31:48.243Z,15.75
2019-04-10T20:34:15.780Z,16.97
2019-04-10T20:36:43.053Z,16.42
2019-04-10T20:39:12.750Z,17.27
2019-04-10T20:41:49.885Z,15.90
2019-04-10T20:44:09.331Z,15.43
2019-04-10T20:46:38.188Z,16.65
2019-04-10T20:49:08.535Z,15.20
2019-04-10T20:51:37.735Z,14.05
2019-04-10T20:54:06.536Z,13.70
2019-04-10T20:56:34.768Z,13.20
2019-04-10T20:59:03.403Z,14.10
2019-04-10T21:01:30.976Z,15.93
2019-04-10T21:03:58.802Z,15.38
2019-04-10T21:06:26.815Z,17.07
2019-04-10T21:08:54.424Z,16.25
2019-04-10T21:11:23.144Z,15.72
2019-04-10T21:13:50.989Z,15.15
2019-04-10T21:16:19.842Z,14.68
2019-04-10T21:18:48.241Z,15.60
2019-04-10T21:21:16.414Z,15.15
2019-04-10T21:23:44.303Z,13.22
2019-04-10T21:26:12.183Z,14.07
2019-04-10T21:28:41.613Z,17.80
2019-04-10T21:31:25.641Z,20.88
2019-04-10T21:34:10.994Z,22.75
2019-04-10T21:36:39.557Z,25.90
2019-04-10T21:39:07.341Z,21.93
2019-04-10T21:41:37.257Z,20.02
2019-04-10T21:44:04.473Z,20.85
2019-04-10T21:46:32.621Z,20.25
2019-04-10T21:48:59.979Z,21.62
2019-04-10T21:51:27.217Z,21.90
2019-04-10T21:53:57.928Z,21.85
2019-04-10T21:56:27.473Z,21.73
2019-04-10T21:58:54.859Z,21.60
2019-04-10T22:01:24.242Z,22.27
2019-04-10T22:03:54.203Z,21.77
2019-04-10T22:06:39.349Z,23.42
2019-04-10T22:09:12.638Z,21.50
2019-04-10T22:11:41.904Z,23.32
2019-04-10T22:14:09.343Z,20.65
2019-04-10T22:16:37.935Z,19.92
2019-04-10T22:19:05.901Z,19.55
2019-04-10T22:21:33.347Z,19.95
2019-04-10T22:24:00.959Z,18.30
2019-04-10T22:26:28.347Z,18.20
2019-04-10T22:28:56.822Z,18.17
2019-04-10T22:31:24.529Z,19.70
2019-04-10T22:33:54.250Z,19.85
2019-04-10T22:36:22.833Z,19.25
2019-04-10T22:38:50.178Z,18.57
2019-04-10T22:41:23.694Z,16.75
2019-04-10T22:43:46.997Z,18.48
2019-04-10T22:46:15.142Z,17.65
2019-04-10T22:48:43.580Z,16.95
2019-04-10T22:51:11.230Z,16.10
2019-04-10T22:53:39.553Z,16.65
2019-04-10T22:56:08.820Z,15.78
2019-04-10T22:58:37.851Z,14.80
2019-04-10T23:01:05.176Z,15.28
2019-04-10T23:03:32.652Z,15.75
2019-04-10T23:06:00.697Z,15.80
2019-04-10T23:08:28.387Z,16.77
2019-04-10T23:10:55.625Z,16.93
2019-04-10T23:13:23.761Z,16.77
2019-04-10T23:15:51.480Z,17.45
2019-04-10T23:18:19.243Z,17.55
2019-04-10T23:20:48.075Z,17.35
2019-04-10T23:23:16.817Z,16.73
2019-04-10T23:25:44.736Z,16.37
2019-04-10T23:28:12.008Z,17.35
2019-04-10T23:30:39.320Z,16.95
2019-04-10T23:33:08.078Z,17.07
2019-04-10T23:35:35.941Z,16.05
2019-04-10T23:38:03.748Z,14.03
2019-04-10T23:40:30.971Z,13.78
2019-04-10T23:43:07.806Z,14.55
2019-04-10T23:45:27.314Z,13.85
2019-04-10T23:47:54.535Z,13.98
2019-04-10T23:50:21.894Z,14.90
2019-04-10T23:52:49.805Z,15.85
2019-04-10T23:55:17.801Z,16.65
2019-04-10T23:57:45.294Z,16.02
